Terminal Aerodrome Forecast
Issued by NWS San Angelo, TX

Home | Current Version | Previous Version | Text Only | Print | Product List | Glossary On
Versions: 1 2 3 4 5 6 7 8 9 10 11 12 13 14 15 16 17
251
FTUS44 KSJT 021720
TAFABI
TAF
KABI 021720Z 0218/0318 36010KT P6SM SCT025 SCT050 BKN120
     FM030000 35007KT P6SM FEW120=

USA.gov is the U.S. government's official web portal to all federal, state and local government web resources and services.